sensor_id;sensor_type;location;lat;lon;timestamp;temperature;humidity
21563;DHT22;10942;47.894;11.424;2023-12-28T00:00:17;0.90;99.90
21563;DHT22;10942;47.894;11.424;2023-12-28T00:02:43;0.80;99.90
21563;DHT22;10942;47.894;11.424;2023-12-28T00:05:09;0.80;99.90
21563;DHT22;10942;47.894;11.424;2023-12-28T00:07:35;0.70;99.90
21563;DHT22;10942;47.894;11.424;2023-12-28T00:10:02;0.70;99.90
21563;DHT22;10942;47.894;11.424;2023-12-28T00:12:28;0.70;99.90
21563;DHT22;10942;47.894;11.424;2023-12-28T00:14:53;0.70;99.90
21563;DHT22;10942;47.894;11.424;2023-12-28T00:17:19;0.70;99.90
21563;DHT22;10942;47.894;11.424;2023-12-28T00:19:45;0.60;99.90
21563;DHT22;10942;47.894;11.424;2023-12-28T00:22:11;0.60;99.90
21563;DHT22;10942;47.894;11.424;2023-12-28T00:24:37;0.70;99.90
21563;DHT22;10942;47.894;11.424;2023-12-28T00:27:03;0.60;99.90
21563;DHT22;10942;47.894;11.424;2023-12-28T00:29:29;0.60;99.90
21563;DHT22;10942;47.894;11.424;2023-12-28T00:31:54;0.60;99.90
21563;DHT22;10942;47.894;11.424;2023-12-28T00:34:20;0.60;99.90
21563;DHT22;10942;47.894;11.424;2023-12-28T00:36:46;0.60;99.90
21563;DHT22;10942;47.894;11.424;2023-12-28T00:39:12;0.50;99.90
21563;DHT22;10942;47.894;11.424;2023-12-28T00:41:38;0.50;99.90
21563;DHT22;10942;47.894;11.424;2023-12-28T00:44:04;0.50;99.90
21563;DHT22;10942;47.894;11.424;2023-12-28T00:46:32;0.50;99.90
21563;DHT22;10942;47.894;11.424;2023-12-28T00:48:57;0.40;99.90
21563;DHT22;10942;47.894;11.424;2023-12-28T00:51:24;0.40;99.90
21563;DHT22;10942;47.894;11.424;2023-12-28T00:53:49;0.30;99.90
21563;DHT22;10942;47.894;11.424;2023-12-28T00:56:15;0.40;99.90
21563;DHT22;10942;47.894;11.424;2023-12-28T00:58:41;0.30;99.90
21563;DHT22;10942;47.894;11.424;2023-12-28T01:01:09;0.30;99.90
21563;DHT22;10942;47.894;11.424;2023-12-28T01:03:35;0.20;99.90
21563;DHT22;10942;47.894;11.424;2023-12-28T01:06:01;0.20;99.90
21563;DHT22;10942;47.894;11.424;2023-12-28T01:08:27;0.30;99.90
21563;DHT22;10942;47.894;11.424;2023-12-28T01:10:53;0.30;99.90
21563;DHT22;10942;47.894;11.424;2023-12-28T01:13:19;0.30;99.90
21563;DHT22;10942;47.894;11.424;2023-12-28T01:15:45;0.40;99.90
21563;DHT22;10942;47.894;11.424;2023-12-28T01:18:11;0.30;99.90
21563;DHT22;10942;47.894;11.424;2023-12-28T01:20:36;0.30;99.90
21563;DHT22;10942;47.894;11.424;2023-12-28T01:23:03;0.30;99.90
21563;DHT22;10942;47.894;11.424;2023-12-28T01:25:29;0.30;99.90
21563;DHT22;10942;47.894;11.424;2023-12-28T01:27:55;0.30;99.90
21563;DHT22;10942;47.894;11.424;2023-12-28T01:30:20;0.30;99.90
21563;DHT22;10942;47.894;11.424;2023-12-28T01:32:46;0.30;99.90
21563;DHT22;10942;47.894;11.424;2023-12-28T01:35:12;0.30;99.90
21563;DHT22;10942;47.894;11.424;2023-12-28T01:37:39;0.30;99.90
21563;DHT22;10942;47.894;11.424;2023-12-28T01:40:05;0.20;99.90
21563;DHT22;10942;47.894;11.424;2023-12-28T01:42:32;0.30;99.90
21563;DHT22;10942;47.894;11.424;2023-12-28T01:44:57;0.30;99.90
21563;DHT22;10942;47.894;11.424;2023-12-28T01:47:25;0.30;99.90
21563;DHT22;10942;47.894;11.424;2023-12-28T01:49:51;0.30;99.90
21563;DHT22;10942;47.894;11.424;2023-12-28T01:52:17;0.30;99.90
21563;DHT22;10942;47.894;11.424;2023-12-28T01:54:44;0.20;99.90
21563;DHT22;10942;47.894;11.424;2023-12-28T01:57:10;0.20;99.90
21563;DHT22;10942;47.894;11.424;2023-12-28T01:59:37;0.20;99.90
21563;DHT22;10942;47.894;11.424;2023-12-28T02:02:03;0.20;99.90
21563;DHT22;10942;47.894;11.424;2023-12-28T02:04:28;0.00;99.90
21563;DHT22;10942;47.894;11.424;2023-12-28T02:06:58;0.10;99.90
21563;DHT22;10942;47.894;11.424;2023-12-28T02:09:24;0.00;99.90
21563;DHT22;10942;47.894;11.424;2023-12-28T02:11:51;-0.20;99.90
21563;DHT22;10942;47.894;11.424;2023-12-28T02:16:47;-0.20;99.90
21563;DHT22;10942;47.894;11.424;2023-12-28T02:19:31;-0.10;99.90
21563;DHT22;10942;47.894;11.424;2023-12-28T02:21:59;-0.10;99.90
21563;DHT22;10942;47.894;11.424;2023-12-28T02:24:25;-0.20;99.90
21563;DHT22;10942;47.894;11.424;2023-12-28T02:26:51;-0.20;99.90
21563;DHT22;10942;47.894;11.424;2023-12-28T02:29:18;-0.20;99.90
21563;DHT22;10942;47.894;11.424;2023-12-28T02:31:57;-0.30;99.90
21563;DHT22;10942;47.894;11.424;2023-12-28T02:34:34;-0.30;99.90
21563;DHT22;10942;47.894;11.424;2023-12-28T02:37:01;-0.20;99.90
21563;DHT22;10942;47.894;11.424;2023-12-28T02:39:28;-0.20;99.90
21563;DHT22;10942;47.894;11.424;2023-12-28T02:41:55;-0.20;99.90
21563;DHT22;10942;47.894;11.424;2023-12-28T02:44:21;-0.30;99.90
21563;DHT22;10942;47.894;11.424;2023-12-28T02:46:47;-0.20;99.90
21563;DHT22;10942;47.894;11.424;2023-12-28T02:49:13;-0.20;99.90
21563;DHT22;10942;47.894;11.424;2023-12-28T02:51:38;-0.20;99.90
21563;DHT22;10942;47.894;11.424;2023-12-28T02:54:04;-0.30;99.90
21563;DHT22;10942;47.894;11.424;2023-12-28T02:56:30;-0.30;99.90
21563;DHT22;10942;47.894;11.424;2023-12-28T02:58:57;-0.20;99.90
21563;DHT22;10942;47.894;11.424;2023-12-28T03:01:23;-0.30;99.90
21563;DHT22;10942;47.894;11.424;2023-12-28T03:03:49;-0.30;99.90
21563;DHT22;10942;47.894;11.424;2023-12-28T03:06:15;-0.30;99.90
21563;DHT22;10942;47.894;11.424;2023-12-28T03:08:41;-0.40;99.90
21563;DHT22;10942;47.894;11.424;2023-12-28T03:11:07;-0.30;99.90
21563;DHT22;10942;47.894;11.424;2023-12-28T03:13:32;-0.30;99.90
21563;DHT22;10942;47.894;11.424;2023-12-28T03:15:58;-0.30;99.90
21563;DHT22;10942;47.894;11.424;2023-12-28T03:18:24;-0.30;99.90
21563;DHT22;10942;47.894;11.424;2023-12-28T03:20:49;-0.30;99.90
21563;DHT22;10942;47.894;11.424;2023-12-28T03:23:15;-0.30;99.90
21563;DHT22;10942;47.894;11.424;2023-12-28T03:25:41;-0.30;99.90
21563;DHT22;10942;47.894;11.424;2023-12-28T03:28:07;-0.20;99.90
21563;DHT22;10942;47.894;11.424;2023-12-28T03:30:32;-0.30;99.90
21563;DHT22;10942;47.894;11.424;2023-12-28T03:32:58;-0.30;99.90
21563;DHT22;10942;47.894;11.424;2023-12-28T03:35:24;-0.40;99.90
21563;DHT22;10942;47.894;11.424;2023-12-28T03:37:50;-0.40;99.90
21563;DHT22;10942;47.894;11.424;2023-12-28T03:40:16;-0.40;99.90
21563;DHT22;10942;47.894;11.424;2023-12-28T03:42:41;-0.40;99.90
21563;DHT22;10942;47.894;11.424;2023-12-28T03:45:07;-0.40;99.90
21563;DHT22;10942;47.894;11.424;2023-12-28T03:47:33;-0.40;99.90
21563;DHT22;10942;47.894;11.424;2023-12-28T03:52:28;-0.50;99.90
21563;DHT22;10942;47.894;11.424;2023-12-28T03:54:56;-0.50;99.90
21563;DHT22;10942;47.894;11.424;2023-12-28T03:57:21;-0.50;99.90
21563;DHT22;10942;47.894;11.424;2023-12-28T03:59:47;-0.50;99.90
21563;DHT22;10942;47.894;11.424;2023-12-28T04:02:13;-0.50;99.90
21563;DHT22;10942;47.894;11.424;2023-12-28T04:04:39;-0.50;99.90
21563;DHT22;10942;47.894;11.424;2023-12-28T04:07:05;-0.50;99.90
21563;DHT22;10942;47.894;11.424;2023-12-28T04:09:33;-0.50;99.90
21563;DHT22;10942;47.894;11.424;2023-12-28T04:11:59;-0.50;99.90
21563;DHT22;10942;47.894;11.424;2023-12-28T04:14:24;-0.50;99.90
21563;DHT22;10942;47.894;11.424;2023-12-28T04:16:51;-0.60;99.90
21563;DHT22;10942;47.894;11.424;2023-12-28T04:19:16;-0.60;99.90
21563;DHT22;10942;47.894;11.424;2023-12-28T04:21:43;-0.60;99.90
21563;DHT22;10942;47.894;11.424;2023-12-28T04:24:09;-0.60;99.90
21563;DHT22;10942;47.894;11.424;2023-12-28T04:26:35;-0.60;99.90
21563;DHT22;10942;47.894;11.424;2023-12-28T04:29:01;-0.60;99.90
21563;DHT22;10942;47.894;11.424;2023-12-28T04:31:26;-0.60;99.90
21563;DHT22;10942;47.894;11.424;2023-12-28T04:33:52;-0.60;99.90
21563;DHT22;10942;47.894;11.424;2023-12-28T04:36:18;-0.60;99.90
21563;DHT22;10942;47.894;11.424;2023-12-28T04:38:43;-0.70;99.90
21563;DHT22;10942;47.894;11.424;2023-12-28T04:41:09;-0.60;99.90
21563;DHT22;10942;47.894;11.424;2023-12-28T04:43:36;-0.70;99.90
21563;DHT22;10942;47.894;11.424;2023-12-28T04:46:04;-0.70;99.90
21563;DHT22;10942;47.894;11.424;2023-12-28T04:48:31;-0.80;99.90
21563;DHT22;10942;47.894;11.424;2023-12-28T04:50:57;-0.80;99.90
21563;DHT22;10942;47.894;11.424;2023-12-28T04:53:23;-0.80;99.90
21563;DHT22;10942;47.894;11.424;2023-12-28T04:55:49;-0.80;99.90
21563;DHT22;10942;47.894;11.424;2023-12-28T04:58:15;-0.80;99.90
21563;DHT22;10942;47.894;11.424;2023-12-28T05:00:40;-0.90;99.90
21563;DHT22;10942;47.894;11.424;2023-12-28T05:03:06;-0.90;99.90
21563;DHT22;10942;47.894;11.424;2023-12-28T05:05:32;-0.90;99.90
21563;DHT22;10942;47.894;11.424;2023-12-28T05:07:58;-0.90;99.90
21563;DHT22;10942;47.894;11.424;2023-12-28T05:10:24;-0.90;99.90
21563;DHT22;10942;47.894;11.424;2023-12-28T05:12:49;-0.90;99.90
21563;DHT22;10942;47.894;11.424;2023-12-28T05:15:15;-0.90;99.90
21563;DHT22;10942;47.894;11.424;2023-12-28T05:17:41;-0.90;99.90
21563;DHT22;10942;47.894;11.424;2023-12-28T05:20:07;-1.00;99.90
21563;DHT22;10942;47.894;11.424;2023-12-28T05:22:33;-0.90;99.90
21563;DHT22;10942;47.894;11.424;2023-12-28T05:24:58;-1.00;99.90
21563;DHT22;10942;47.894;11.424;2023-12-28T05:27:24;-1.00;99.90
21563;DHT22;10942;47.894;11.424;2023-12-28T05:29:50;-1.00;99.90
21563;DHT22;10942;47.894;11.424;2023-12-28T05:32:16;-1.10;99.90
21563;DHT22;10942;47.894;11.424;2023-12-28T05:34:41;-1.00;99.90
21563;DHT22;10942;47.894;11.424;2023-12-28T05:37:07;-1.10;99.90
21563;DHT22;10942;47.894;11.424;2023-12-28T05:39:33;-1.10;99.90
21563;DHT22;10942;47.894;11.424;2023-12-28T05:41:58;-1.10;99.90
21563;DHT22;10942;47.894;11.424;2023-12-28T05:44:24;-1.10;99.90
21563;DHT22;10942;47.894;11.424;2023-12-28T05:46:50;-1.10;99.90
21563;DHT22;10942;47.894;11.424;2023-12-28T05:49:17;-1.10;99.90
21563;DHT22;10942;47.894;11.424;2023-12-28T05:51:43;-1.10;99.90
21563;DHT22;10942;47.894;11.424;2023-12-28T05:54:09;-1.10;99.90
21563;DHT22;10942;47.894;11.424;2023-12-28T05:56:35;-1.10;99.90
21563;DHT22;10942;47.894;11.424;2023-12-28T05:59:01;-1.20;99.90
21563;DHT22;10942;47.894;11.424;2023-12-28T06:01:26;-1.10;99.90
21563;DHT22;10942;47.894;11.424;2023-12-28T06:03:53;-1.10;99.90
21563;DHT22;10942;47.894;11.424;2023-12-28T06:06:19;-1.20;99.90
21563;DHT22;10942;47.894;11.424;2023-12-28T06:08:46;-1.10;99.90
21563;DHT22;10942;47.894;11.424;2023-12-28T06:11:12;-1.10;99.90
21563;DHT22;10942;47.894;11.424;2023-12-28T06:13:38;-1.10;99.90
21563;DHT22;10942;47.894;11.424;2023-12-28T06:16:03;-1.20;99.90
21563;DHT22;10942;47.894;11.424;2023-12-28T06:18:29;-1.20;99.90
21563;DHT22;10942;47.894;11.424;2023-12-28T06:20:55;-1.20;99.90
21563;DHT22;10942;47.894;11.424;2023-12-28T06:23:21;-1.20;99.90
21563;DHT22;10942;47.894;11.424;2023-12-28T06:25:46;-1.20;99.90
21563;DHT22;10942;47.894;11.424;2023-12-28T06:28:12;-1.20;99.90
21563;DHT22;10942;47.894;11.424;2023-12-28T06:30:38;-1.10;99.90
21563;DHT22;10942;47.894;11.424;2023-12-28T06:33:05;-1.10;99.90
21563;DHT22;10942;47.894;11.424;2023-12-28T06:35:31;-1.10;99.90
21563;DHT22;10942;47.894;11.424;2023-12-28T06:37:57;-1.10;99.90
21563;DHT22;10942;47.894;11.424;2023-12-28T06:40:22;-1.10;99.90
21563;DHT22;10942;47.894;11.424;2023-12-28T06:42:48;-1.10;99.90
21563;DHT22;10942;47.894;11.424;2023-12-28T06:45:14;-1.10;99.90
21563;DHT22;10942;47.894;11.424;2023-12-28T06:47:39;-1.10;99.90
21563;DHT22;10942;47.894;11.424;2023-12-28T06:50:06;-1.10;99.90
21563;DHT22;10942;47.894;11.424;2023-12-28T06:52:31;-1.10;99.90
21563;DHT22;10942;47.894;11.424;2023-12-28T06:54:58;-1.10;99.90
21563;DHT22;10942;47.894;11.424;2023-12-28T06:57:24;-1.10;99.90
21563;DHT22;10942;47.894;11.424;2023-12-28T06:59:50;-1.10;99.90
21563;DHT22;10942;47.894;11.424;2023-12-28T07:02:15;-1.10;99.90
21563;DHT22;10942;47.894;11.424;2023-12-28T07:04:41;-1.10;99.90
21563;DHT22;10942;47.894;11.424;2023-12-28T07:07:07;-1.10;99.90
21563;DHT22;10942;47.894;11.424;2023-12-28T07:09:33;-1.10;99.90
21563;DHT22;10942;47.894;11.424;2023-12-28T07:11:58;-1.10;99.90
21563;DHT22;10942;47.894;11.424;2023-12-28T07:14:25;-1.10;99.90
21563;DHT22;10942;47.894;11.424;2023-12-28T07:16:50;-1.20;99.90
21563;DHT22;10942;47.894;11.424;2023-12-28T07:19:16;-1.20;99.90
21563;DHT22;10942;47.894;11.424;2023-12-28T07:21:42;-1.10;99.90
21563;DHT22;10942;47.894;11.424;2023-12-28T07:24:07;-1.10;99.90
21563;DHT22;10942;47.894;11.424;2023-12-28T07:26:33;-1.10;99.90
21563;DHT22;10942;47.894;11.424;2023-12-28T07:28:59;-1.10;99.90
21563;DHT22;10942;47.894;11.424;2023-12-28T07:31:26;-1.10;99.90
21563;DHT22;10942;47.894;11.424;2023-12-28T07:33:52;-1.10;99.90
21563;DHT22;10942;47.894;11.424;2023-12-28T07:36:17;-1.00;99.90
21563;DHT22;10942;47.894;11.424;2023-12-28T07:38:43;-0.90;99.90
21563;DHT22;10942;47.894;11.424;2023-12-28T07:41:09;-0.70;99.90
21563;DHT22;10942;47.894;11.424;2023-12-28T07:43:35;-0.40;99.90
21563;DHT22;10942;47.894;11.424;2023-12-28T07:46:04;-0.10;99.90
21563;DHT22;10942;47.894;11.424;2023-12-28T07:48:30;0.10;99.90
21563;DHT22;10942;47.894;11.424;2023-12-28T07:50:56;-0.10;99.90
21563;DHT22;10942;47.894;11.424;2023-12-28T07:53:22;0.10;99.90
21563;DHT22;10942;47.894;11.424;2023-12-28T07:55:48;0.40;99.90
21563;DHT22;10942;47.894;11.424;2023-12-28T07:58:15;0.50;99.90
21563;DHT22;10942;47.894;11.424;2023-12-28T08:00:40;0.70;99.90
21563;DHT22;10942;47.894;11.424;2023-12-28T08:03:06;0.80;99.90
21563;DHT22;10942;47.894;11.424;2023-12-28T08:05:32;1.10;99.90
21563;DHT22;10942;47.894;11.424;2023-12-28T08:07:58;1.30;99.90
21563;DHT22;10942;47.894;11.424;2023-12-28T08:10:23;1.50;99.90
21563;DHT22;10942;47.894;11.424;2023-12-28T08:12:49;1.60;99.90
21563;DHT22;10942;47.894;11.424;2023-12-28T08:15:15;1.80;99.90
21563;DHT22;10942;47.894;11.424;2023-12-28T08:17:40;1.90;99.90
21563;DHT22;10942;47.894;11.424;2023-12-28T08:20:06;2.00;99.90
21563;DHT22;10942;47.894;11.424;2023-12-28T08:22:32;2.10;99.90
21563;DHT22;10942;47.894;11.424;2023-12-28T08:24:59;2.30;99.90
21563;DHT22;10942;47.894;11.424;2023-12-28T08:27:24;2.50;99.90
21563;DHT22;10942;47.894;11.424;2023-12-28T08:29:50;2.80;99.90
21563;DHT22;10942;47.894;11.424;2023-12-28T08:32:16;3.00;99.90
21563;DHT22;10942;47.894;11.424;2023-12-28T08:34:43;3.00;99.90
21563;DHT22;10942;47.894;11.424;2023-12-28T08:37:09;3.10;99.90
21563;DHT22;10942;47.894;11.424;2023-12-28T08:39:34;3.30;99.90
21563;DHT22;10942;47.894;11.424;2023-12-28T08:42:00;3.60;99.90
21563;DHT22;10942;47.894;11.424;2023-12-28T08:44:26;3.80;99.90
21563;DHT22;10942;47.894;11.424;2023-12-28T08:46:52;4.00;99.90
21563;DHT22;10942;47.894;11.424;2023-12-28T08:49:17;4.30;99.90
21563;DHT22;10942;47.894;11.424;2023-12-28T08:51:43;4.70;99.90
21563;DHT22;10942;47.894;11.424;2023-12-28T08:54:09;4.80;99.90
21563;DHT22;10942;47.894;11.424;2023-12-28T08:56:35;4.90;99.90
21563;DHT22;10942;47.894;11.424;2023-12-28T09:01:27;5.20;99.90
21563;DHT22;10942;47.894;11.424;2023-12-28T09:03:55;5.50;99.90
21563;DHT22;10942;47.894;11.424;2023-12-28T09:06:22;5.70;99.90
21563;DHT22;10942;47.894;11.424;2023-12-28T09:11:16;5.80;99.90
21563;DHT22;10942;47.894;11.424;2023-12-28T09:13:42;6.00;99.90
21563;DHT22;10942;47.894;11.424;2023-12-28T09:16:09;6.00;99.90
21563;DHT22;10942;47.894;11.424;2023-12-28T09:18:36;6.00;99.90
21563;DHT22;10942;47.894;11.424;2023-12-28T09:21:05;6.20;99.90
21563;DHT22;10942;47.894;11.424;2023-12-28T09:23:32;6.10;99.90
21563;DHT22;10942;47.894;11.424;2023-12-28T09:25:59;6.20;99.90
21563;DHT22;10942;47.894;11.424;2023-12-28T09:28:25;6.30;99.90
21563;DHT22;10942;47.894;11.424;2023-12-28T09:30:51;6.50;99.90
21563;DHT22;10942;47.894;11.424;2023-12-28T09:33:16;6.70;99.90
21563;DHT22;10942;47.894;11.424;2023-12-28T09:35:42;6.60;99.90
21563;DHT22;10942;47.894;11.424;2023-12-28T09:38:08;6.70;99.90
21563;DHT22;10942;47.894;11.424;2023-12-28T09:40:35;6.70;99.90
21563;DHT22;10942;47.894;11.424;2023-12-28T09:43:23;6.90;99.90
21563;DHT22;10942;47.894;11.424;2023-12-28T09:45:52;7.10;99.90
21563;DHT22;10942;47.894;11.424;2023-12-28T09:48:19;6.90;99.90
21563;DHT22;10942;47.894;11.424;2023-12-28T09:50:50;7.20;99.90
21563;DHT22;10942;47.894;11.424;2023-12-28T09:53:16;7.40;99.90
21563;DHT22;10942;47.894;11.424;2023-12-28T09:55:43;7.50;99.90
21563;DHT22;10942;47.894;11.424;2023-12-28T09:58:10;7.70;99.90
21563;DHT22;10942;47.894;11.424;2023-12-28T10:00:38;7.90;99.90
21563;DHT22;10942;47.894;11.424;2023-12-28T10:03:04;8.00;99.90
21563;DHT22;10942;47.894;11.424;2023-12-28T10:05:29;8.10;99.90
21563;DHT22;10942;47.894;11.424;2023-12-28T10:07:55;8.20;99.90
21563;DHT22;10942;47.894;11.424;2023-12-28T10:10:21;8.00;99.90
21563;DHT22;10942;47.894;11.424;2023-12-28T10:12:47;7.90;99.90
21563;DHT22;10942;47.894;11.424;2023-12-28T10:15:13;7.90;99.90
21563;DHT22;10942;47.894;11.424;2023-12-28T10:17:39;7.70;99.90
21563;DHT22;10942;47.894;11.424;2023-12-28T10:20:06;7.70;99.90
21563;DHT22;10942;47.894;11.424;2023-12-28T10:22:36;7.60;99.90
21563;DHT22;10942;47.894;11.424;2023-12-28T10:25:05;7.50;99.90
21563;DHT22;10942;47.894;11.424;2023-12-28T10:27:31;7.70;99.90
21563;DHT22;10942;47.894;11.424;2023-12-28T10:29:56;7.80;99.90
21563;DHT22;10942;47.894;11.424;2023-12-28T10:32:23;7.80;99.90
21563;DHT22;10942;47.894;11.424;2023-12-28T10:34:51;8.10;99.90
21563;DHT22;10942;47.894;11.424;2023-12-28T10:37:19;8.20;99.90
21563;DHT22;10942;47.894;11.424;2023-12-28T10:39:47;8.40;99.90
21563;DHT22;10942;47.894;11.424;2023-12-28T10:42:22;8.80;99.90
21563;DHT22;10942;47.894;11.424;2023-12-28T16:11:41;6.70;99.90
21563;DHT22;10942;47.894;11.424;2023-12-28T16:14:07;6.60;99.90
21563;DHT22;10942;47.894;11.424;2023-12-28T16:16:33;6.50;99.90
21563;DHT22;10942;47.894;11.424;2023-12-28T16:18:59;6.50;99.90
21563;DHT22;10942;47.894;11.424;2023-12-28T16:21:25;6.50;99.90
21563;DHT22;10942;47.894;11.424;2023-12-28T16:23:51;6.50;99.90
21563;DHT22;10942;47.894;11.424;2023-12-28T16:26:17;6.40;99.90
21563;DHT22;10942;47.894;11.424;2023-12-28T16:28:44;6.40;99.90
21563;DHT22;10942;47.894;11.424;2023-12-28T16:31:10;6.40;99.90
21563;DHT22;10942;47.894;11.424;2023-12-28T16:33:35;6.40;99.90
21563;DHT22;10942;47.894;11.424;2023-12-28T16:36:01;6.40;99.90
21563;DHT22;10942;47.894;11.424;2023-12-28T16:38:27;6.40;99.90
21563;DHT22;10942;47.894;11.424;2023-12-28T16:40:53;6.40;99.90
21563;DHT22;10942;47.894;11.424;2023-12-28T16:43:19;6.30;99.90
21563;DHT22;10942;47.894;11.424;2023-12-28T16:45:44;6.40;99.90
21563;DHT22;10942;47.894;11.424;2023-12-28T16:48:10;6.40;99.90
21563;DHT22;10942;47.894;11.424;2023-12-28T16:50:39;6.30;99.90
21563;DHT22;10942;47.894;11.424;2023-12-28T16:53:05;6.30;99.90
21563;DHT22;10942;47.894;11.424;2023-12-28T16:55:33;6.30;99.90
21563;DHT22;10942;47.894;11.424;2023-12-28T16:57:59;6.30;99.90
21563;DHT22;10942;47.894;11.424;2023-12-28T17:00:25;6.30;99.90
21563;DHT22;10942;47.894;11.424;2023-12-28T17:02:50;6.20;99.90
21563;DHT22;10942;47.894;11.424;2023-12-28T17:05:16;6.20;99.90
21563;DHT22;10942;47.894;11.424;2023-12-28T17:07:42;6.10;99.90
21563;DHT22;10942;47.894;11.424;2023-12-28T17:10:08;6.10;99.90
21563;DHT22;10942;47.894;11.424;2023-12-28T17:12:39;6.20;99.90
21563;DHT22;10942;47.894;11.424;2023-12-28T17:15:10;6.20;99.90
21563;DHT22;10942;47.894;11.424;2023-12-28T17:17:37;6.20;99.90
21563;DHT22;10942;47.894;11.424;2023-12-28T17:20:04;6.10;99.90
21563;DHT22;10942;47.894;11.424;2023-12-28T17:22:33;6.10;99.90
21563;DHT22;10942;47.894;11.424;2023-12-28T17:27:52;6.10;99.90
21563;DHT22;10942;47.894;11.424;2023-12-28T17:30:18;6.10;99.90
21563;DHT22;10942;47.894;11.424;2023-12-28T17:32:46;6.10;99.90
21563;DHT22;10942;47.894;11.424;2023-12-28T17:35:13;6.10;99.90
21563;DHT22;10942;47.894;11.424;2023-12-28T17:37:39;6.10;99.90
21563;DHT22;10942;47.894;11.424;2023-12-28T17:40:05;6.10;99.90
21563;DHT22;10942;47.894;11.424;2023-12-28T17:42:34;6.10;99.90
21563;DHT22;10942;47.894;11.424;2023-12-28T17:45:04;6.10;99.90
21563;DHT22;10942;47.894;11.424;2023-12-28T17:47:46;6.10;99.90
21563;DHT22;10942;47.894;11.424;2023-12-28T17:50:17;6.00;99.90
21563;DHT22;10942;47.894;11.424;2023-12-28T17:52:42;6.00;99.90
21563;DHT22;10942;47.894;11.424;2023-12-28T17:55:08;6.00;99.90
21563;DHT22;10942;47.894;11.424;2023-12-28T17:57:34;5.90;99.90
21563;DHT22;10942;47.894;11.424;2023-12-28T18:00:00;5.90;99.90
21563;DHT22;10942;47.894;11.424;2023-12-28T18:02:25;5.90;99.90
21563;DHT22;10942;47.894;11.424;2023-12-28T18:04:51;5.80;99.90
21563;DHT22;10942;47.894;11.424;2023-12-28T18:07:18;5.90;99.90
21563;DHT22;10942;47.894;11.424;2023-12-28T18:09:43;5.80;99.90
21563;DHT22;10942;47.894;11.424;2023-12-28T18:12:09;5.80;99.90
21563;DHT22;10942;47.894;11.424;2023-12-28T18:14:36;5.80;99.90
21563;DHT22;10942;47.894;11.424;2023-12-28T18:17:02;5.80;99.90
21563;DHT22;10942;47.894;11.424;2023-12-28T18:19:28;5.90;99.90
21563;DHT22;10942;47.894;11.424;2023-12-28T18:21:54;5.90;99.90
21563;DHT22;10942;47.894;11.424;2023-12-28T18:24:20;5.90;99.90
21563;DHT22;10942;47.894;11.424;2023-12-28T18:26:45;5.90;99.90
21563;DHT22;10942;47.894;11.424;2023-12-28T18:29:12;5.90;99.90
21563;DHT22;10942;47.894;11.424;2023-12-28T18:31:37;5.90;99.90
21563;DHT22;10942;47.894;11.424;2023-12-28T18:34:03;5.90;99.90
21563;DHT22;10942;47.894;11.424;2023-12-28T18:36:29;5.90;99.90
21563;DHT22;10942;47.894;11.424;2023-12-28T18:38:55;5.90;99.90
21563;DHT22;10942;47.894;11.424;2023-12-28T18:41:20;5.90;99.90
21563;DHT22;10942;47.894;11.424;2023-12-28T18:43:46;5.90;99.90
21563;DHT22;10942;47.894;11.424;2023-12-28T18:46:12;5.90;99.90
21563;DHT22;10942;47.894;11.424;2023-12-28T18:48:37;5.90;99.90
21563;DHT22;10942;47.894;11.424;2023-12-28T18:51:03;5.90;99.90
21563;DHT22;10942;47.894;11.424;2023-12-28T18:53:30;5.90;99.90
21563;DHT22;10942;47.894;11.424;2023-12-28T18:55:56;5.90;99.90
21563;DHT22;10942;47.894;11.424;2023-12-28T18:58:22;5.90;99.90
21563;DHT22;10942;47.894;11.424;2023-12-28T19:00:47;5.90;99.90
21563;DHT22;10942;47.894;11.424;2023-12-28T19:03:13;5.90;99.90
21563;DHT22;10942;47.894;11.424;2023-12-28T19:05:39;5.90;99.90
21563;DHT22;10942;47.894;11.424;2023-12-28T19:08:04;5.90;99.90
21563;DHT22;10942;47.894;11.424;2023-12-28T19:10:32;5.90;99.90
21563;DHT22;10942;47.894;11.424;2023-12-28T19:12:57;5.90;99.90
21563;DHT22;10942;47.894;11.424;2023-12-28T19:15:23;5.90;99.90
21563;DHT22;10942;47.894;11.424;2023-12-28T19:17:49;5.90;99.90
21563;DHT22;10942;47.894;11.424;2023-12-28T19:20:14;5.90;99.90
21563;DHT22;10942;47.894;11.424;2023-12-28T19:22:40;5.90;99.90
21563;DHT22;10942;47.894;11.424;2023-12-28T19:25:06;5.90;99.90
21563;DHT22;10942;47.894;11.424;2023-12-28T19:27:32;5.90;99.90
21563;DHT22;10942;47.894;11.424;2023-12-28T19:29:58;5.90;99.90
21563;DHT22;10942;47.894;11.424;2023-12-28T19:32:25;5.90;99.90
21563;DHT22;10942;47.894;11.424;2023-12-28T19:34:51;5.90;99.90
21563;DHT22;10942;47.894;11.424;2023-12-28T19:37:17;5.90;99.90
21563;DHT22;10942;47.894;11.424;2023-12-28T19:39:43;5.90;99.90
21563;DHT22;10942;47.894;11.424;2023-12-28T19:42:10;5.90;99.90
21563;DHT22;10942;47.894;11.424;2023-12-28T19:44:36;5.90;99.90
21563;DHT22;10942;47.894;11.424;2023-12-28T19:47:02;5.90;99.90
21563;DHT22;10942;47.894;11.424;2023-12-28T19:49:27;5.90;99.90
21563;DHT22;10942;47.894;11.424;2023-12-28T19:51:53;5.90;99.90
21563;DHT22;10942;47.894;11.424;2023-12-28T19:54:19;5.90;99.90
21563;DHT22;10942;47.894;11.424;2023-12-28T19:56:45;5.80;99.90
21563;DHT22;10942;47.894;11.424;2023-12-28T19:59:13;5.90;99.90
21563;DHT22;10942;47.894;11.424;2023-12-28T20:01:46;5.70;99.90
21563;DHT22;10942;47.894;11.424;2023-12-28T20:04:12;5.70;99.90
21563;DHT22;10942;47.894;11.424;2023-12-28T20:06:45;5.70;99.90
21563;DHT22;10942;47.894;11.424;2023-12-28T20:09:11;5.60;99.90
21563;DHT22;10942;47.894;11.424;2023-12-28T20:11:38;5.60;99.90
21563;DHT22;10942;47.894;11.424;2023-12-28T20:14:04;5.60;99.90
21563;DHT22;10942;47.894;11.424;2023-12-28T20:16:30;5.70;99.90
21563;DHT22;10942;47.894;11.424;2023-12-28T20:18:55;5.50;99.90
21563;DHT22;10942;47.894;11.424;2023-12-28T20:21:24;5.40;99.90
21563;DHT22;10942;47.894;11.424;2023-12-28T20:23:50;5.40;99.90
21563;DHT22;10942;47.894;11.424;2023-12-28T20:28:42;5.30;99.90
21563;DHT22;10942;47.894;11.424;2023-12-28T20:31:08;5.30;99.90
21563;DHT22;10942;47.894;11.424;2023-12-28T20:33:34;5.30;99.90
21563;DHT22;10942;47.894;11.424;2023-12-28T20:36:02;5.30;99.90
21563;DHT22;10942;47.894;11.424;2023-12-28T20:38:28;5.20;99.90
21563;DHT22;10942;47.894;11.424;2023-12-28T20:40:54;5.20;99.90
21563;DHT22;10942;47.894;11.424;2023-12-28T20:43:20;5.20;99.90
21563;DHT22;10942;47.894;11.424;2023-12-28T20:45:45;5.10;99.90
21563;DHT22;10942;47.894;11.424;2023-12-28T20:48:11;5.10;99.90
21563;DHT22;10942;47.894;11.424;2023-12-28T20:50:37;5.10;99.90
21563;DHT22;10942;47.894;11.424;2023-12-28T20:53:03;5.00;99.90
21563;DHT22;10942;47.894;11.424;2023-12-28T20:55:28;4.90;99.90
21563;DHT22;10942;47.894;11.424;2023-12-28T20:57:54;4.90;99.90
21563;DHT22;10942;47.894;11.424;2023-12-28T21:00:20;4.90;99.90